• Join FlightAware (Why Join?)
  • Login
  • US Flag GB Flag 
13:57 EDT


 

Airport Tracker/Info


-or-


 

Live Flight TrackerFlight Track Log ✈ FSR411 ✈ 22-Aug-2013 ✈ KMSP - KLNK

Flight Track Log - Related Links

Times and Time Zones

All times are in EDT time to prevent confusion due to time zone crossing. See the FSR411 flight status page for this flight to view local times or setup timezone preferences in your user account.

Time Position Orientation Groundspeed Altitude Reporting Facility
EDT Latitude Longitude Course Direction KTS MPH feet Rate Location/Type
14:15 44.8278 -93.2322 214° Southwest 194 223 3,500  Level Minneapolis Center
14:17 44.7736 -93.2775 211° Southwest 232 267 6,500 1,680 Climbing Minneapolis Center
14:18 44.7056 -93.3647 222° Southwest 289 333 7,000 900 Climbing Minneapolis Center
14:19 44.6506 -93.4428 225° Southwest 283 326 8,400 2,160 Climbing Minneapolis Center
14:20 44.5772 -93.4989 209° Southwest 299 344 11,500 3,000 Climbing Minneapolis Center
14:21 44.3905 -93.6842 214° Southwest  Level Estimated
14:21 44.4917 -93.5678 210° Southwest 354 407 14,600  Level Minneapolis Center
14:22 44.3944 -93.6453 210° Southwest 404 465 17,600 2,820 Climbing Minneapolis Center
14:23 44.2958 -93.7267 211° Southwest 410 472 20,500 3,000 Climbing Minneapolis Center
14:24 44.1742 -93.8250 210° Southwest 419 482 23,900 2,820 Climbing Minneapolis Center
14:25 44.0697 -93.9083 210° Southwest 428 493 26,400 2,220 Climbing Minneapolis Center
14:26 43.9650 -93.9906 209° Southwest 433 498 28,600 1,680 Climbing Minneapolis Center
14:27 43.8583 -94.0744 210° Southwest 439 505 29,900 660 Climbing Minneapolis Center
14:28 43.7475 -94.1617 210° Southwest 454 522 30,000  Climbing Minneapolis Center
14:29 43.6197 -94.2631 210° Southwest 458 527 30,000  Level Minneapolis Center
14:30 43.5064 -94.3508 209° Southwest 464 534 30,000  Level Minneapolis Center
14:31 43.3928 -94.4394 210° Southwest 468 539 30,000  Level Minneapolis Center
14:32 43.2794 -94.5261 209° Southwest 467 537 30,000  Level Minneapolis Center
14:33 43.1586 -94.5969 203° Southwest 469 540 30,000  Level Minneapolis Center
14:34 43.0142 -94.6803 203° Southwest 469 540 30,000  Level Minneapolis Center
14:35 42.9072 -94.7833 215° Southwest 469 540 30,000  Level Minneapolis Center
14:36 42.8025 -94.8878 216° Southwest 467 537 30,000  Level Minneapolis Center
14:37 42.6953 -94.9950 216° Southwest 469 540 30,000  Level Minneapolis Center
14:38 42.5903 -95.0989 216° Southwest 467 537 30,000  Level Minneapolis Center
14:39 42.4864 -95.1992 215° Southwest 462 532 30,000 -540 Level Minneapolis Center
14:40 42.4044 -95.2811 216° Southwest 458 527 29,000 -1,800 Descending Minneapolis Center
14:41 42.2594 -95.4219 216° Southwest 460 529 26,400 -2,160 Descending Minneapolis Center
14:42 42.1586 -95.5203 216° Southwest 451 519 24,600 -1,740 Descending Minneapolis Center
14:43 42.0592 -95.6167 216° Southwest 444 511 22,900 -1,680 Descending Minneapolis Center
14:44 41.9636 -95.7106 216° Southwest 430 495 21,200 -1,620 Descending Minneapolis Center
14:45 41.8883 -95.7825 215° Southwest 420 483 19,600 -1,800 Descending Minneapolis Center
14:47 41.7772 -95.8886 215° Southwest 412 474 17,600 -1,980 Descending Minneapolis Center
14:48 41.6625 -96.0106 218° Southwest 353 406 15,300 -1,980 Descending Minneapolis Center
14:49 41.5972 -96.0608 210° Southwest 353 406 13,500 -1,680 Descending Minneapolis Center
14:50 41.5067 -96.1539 218° Southwest 337 388 11,900 -1,200 Descending Minneapolis Center
14:51 41.4450 -96.2044 212° Southwest 340 391 11,100 -600 Descending Minneapolis Center
14:52 41.3572 -96.2872 215° Southwest 329 379 10,700 -720 Descending Minneapolis Center
14:53 41.2928 -96.3469 215° Southwest 268 308 9,800 -840 Descending Minneapolis Center
14:54 41.2194 -96.4131 214° Southwest 275 316 9,000 -900 Descending Minneapolis Center
14:55 41.1667 -96.4742 221° Southwest 257 296 8,000 -1,440 Descending Minneapolis Center
14:56 41.1167 -96.5431 226° Southwest 264 304 6,100 -1,620 Descending Minneapolis Center
14:57 41.0708 -96.6261 234° Southwest 264 304 4,600 -1,200 Descending Minneapolis Center
14:58 41.0150 -96.6975 224° Southwest 250 288 3,600 -840 Descending Minneapolis Center
14:59 40.9744 -96.7514 225° Southwest 219 252 3,000 -420 Descending Minneapolis Center
15:00 40.9306 -96.7889 213° Southwest 173 199 2,800 -600 Descending Minneapolis Center
15:01 40.8869 -96.7933 184° South 132 152 1,900 -540 Descending Minneapolis Center
15:02 40.8589 -96.7631 141° Southeast 152 175 1,600 -240 Descending Minneapolis Center